Time;durP1;ratioP1;P1;durP2;ratioP2;P2;SDS_P1;SDS_P2;PMS_P1;PMS_P2;Temp;Humidity;BMP_temperature;BMP_pressure;BME280_temperature;BME280_humidity;BME280_pressure;Samples;Min_cycle;Max_cycle;Signal;HPM_P1;HPM_P2
2023/03/18 00:00:38;;;;;;;10.60;5.55;;;11.50;99.90;;;;;;5024496;28;20493;-67
2023/03/18 00:03:05;;;;;;;7.60;5.45;;;11.50;99.90;;;;;;5023998;28;20507;-68
2023/03/18 00:05:31;;;;;;;8.77;5.28;;;11.50;99.90;;;;;;5046366;28;20193;-68
2023/03/18 00:07:57;;;;;;;8.68;5.45;;;11.50;99.90;;;;;;5045804;28;20554;-68
2023/03/18 00:10:23;;;;;;;9.65;5.55;;;11.40;99.90;;;;;;5043070;28;20073;-67
2023/03/18 00:12:49;;;;;;;15.40;5.95;;;11.50;99.90;;;;;;5023088;28;20072;-68
2023/03/18 00:15:17;;;;;;;10.55;5.32;;;11.50;99.90;;;;;;5039708;28;20045;-67
2023/03/18 00:17:44;;;;;;;8.80;5.78;;;11.50;99.90;;;;;;5042931;28;20481;-67
2023/03/18 00:20:12;;;;;;;10.27;5.75;;;11.50;99.90;;;;;;5043460;28;20048;-68
2023/03/18 00:22:39;;;;;;;9.15;5.43;;;11.60;99.90;;;;;;5041901;28;20029;-68
2023/03/18 00:25:07;;;;;;;10.18;5.20;;;11.60;99.90;;;;;;5041369;28;20049;-67
2023/03/18 00:27:34;;;;;;;8.30;5.65;;;11.60;99.90;;;;;;5046233;28;20378;-68
2023/03/18 00:30:00;;;;;;;8.35;5.32;;;11.60;99.90;;;;;;5048115;28;20543;-67
2023/03/18 00:32:27;;;;;;;11.32;5.75;;;11.60;99.90;;;;;;5041935;28;20045;-68
2023/03/18 00:34:53;;;;;;;12.23;5.50;;;11.70;99.90;;;;;;5031710;28;20120;-68
2023/03/18 00:37:29;;;;;;;9.90;5.63;;;11.70;99.90;;;;;;5048562;28;20037;-68
2023/03/18 00:39:57;;;;;;;11.25;5.68;;;11.70;99.90;;;;;;5043546;28;20493;-68
2023/03/18 00:42:22;;;;;;;9.18;5.72;;;11.70;99.90;;;;;;5049601;28;20041;-67
2023/03/18 00:44:48;;;;;;;9.68;6.10;;;11.70;99.90;;;;;;5045052;28;20102;-67
2023/03/18 00:47:13;;;;;;;11.15;6.10;;;11.80;99.90;;;;;;5041357;28;20105;-67
2023/03/18 00:49:39;;;;;;;7.95;6.10;;;11.80;99.90;;;;;;5048072;28;20035;-68
2023/03/18 00:52:05;;;;;;;11.65;6.35;;;11.90;99.90;;;;;;5031418;28;20048;-69
2023/03/18 00:54:30;;;;;;;10.90;7.38;;;11.90;99.90;;;;;;5038982;28;20041;-68
2023/03/18 00:56:56;;;;;;;12.35;7.28;;;11.80;99.90;;;;;;5023090;28;20045;-68
2023/03/18 00:59:22;;;;;;;14.23;7.18;;;11.80;99.90;;;;;;5046106;28;20037;-67
2023/03/18 01:01:48;;;;;;;13.60;7.47;;;11.90;99.90;;;;;;5039309;28;20441;-68
2023/03/18 01:04:13;;;;;;;11.60;7.50;;;11.80;99.90;;;;;;5038550;28;20045;-67
2023/03/18 01:06:39;;;;;;;11.00;7.55;;;11.80;99.90;;;;;;5046615;28;20094;-67
2023/03/18 01:09:07;;;;;;;14.98;8.57;;;11.70;99.90;;;;;;5045253;28;20374;-67
2023/03/18 01:11:33;;;;;;;13.07;7.78;;;11.70;99.90;;;;;;5050478;28;20055;-69
2023/03/18 01:13:59;;;;;;;15.63;8.95;;;11.70;99.90;;;;;;5047754;28;20041;-67
2023/03/18 01:16:25;;;;;;;13.20;8.73;;;11.70;99.90;;;;;;5045480;28;20459;-69
2023/03/18 01:18:51;;;;;;;19.02;10.05;;;11.70;99.90;;;;;;5047862;28;20033;-68
2023/03/18 01:21:16;;;;;;;15.73;9.35;;;11.60;99.90;;;;;;5049829;28;20047;-68
2023/03/18 01:23:42;;;;;;;15.88;9.63;;;11.60;99.90;;;;;;5048941;28;20041;-69
2023/03/18 01:26:09;;;;;;;14.15;9.07;;;11.60;99.90;;;;;;5044018;28;20029;-68
2023/03/18 01:28:35;;;;;;;13.77;9.05;;;11.40;99.90;;;;;;5047142;28;20140;-68
2023/03/18 01:31:01;;;;;;;14.02;8.85;;;11.30;99.90;;;;;;5045442;28;20037;-67
2023/03/18 01:33:28;;;;;;;15.98;9.80;;;11.20;99.90;;;;;;5043342;28;20383;-68
2023/03/18 01:36:01;;;;;;;12.95;8.82;;;11.10;99.90;;;;;;5035804;28;20432;-69
2023/03/18 01:38:30;;;;;;;16.17;9.50;;;11.00;99.90;;;;;;5043433;28;20033;-68
2023/03/18 01:40:57;;;;;;;19.08;10.15;;;10.90;99.90;;;;;;5034117;28;20032;-67
2023/03/18 01:43:29;;;;;;;15.82;9.50;;;10.80;99.90;;;;;;5038435;28;20080;-68
2023/03/18 01:45:58;;;;;;;15.43;9.75;;;10.80;99.90;;;;;;5030295;28;20465;-68
2023/03/18 01:48:26;;;;;;;16.52;10.82;;;10.80;99.90;;;;;;5048823;28;20453;-68
2023/03/18 01:50:58;;;;;;;18.13;11.63;;;10.70;99.90;;;;;;5047196;28;20081;-67
2023/03/18 01:53:28;;;;;;;17.52;10.80;;;10.70;99.90;;;;;;5046479;28;20426;-66
2023/03/18 01:55:56;;;;;;;19.63;11.15;;;10.70;99.90;;;;;;5040152;28;20068;-68
2023/03/18 01:58:27;;;;;;;18.27;11.75;;;10.70;99.90;;;;;;5044087;28;20048;-68
2023/03/18 02:01:16;;;;;;;18.88;12.10;;;10.60;99.90;;;;;;5045967;28;20049;-68
2023/03/18 02:03:43;;;;;;;22.60;12.90;;;10.60;99.90;;;;;;5052714;28;20124;-68
2023/03/18 02:06:09;;;;;;;23.80;15.30;;;10.50;99.90;;;;;;5042464;28;20094;-67
2023/03/18 02:08:37;;;;;;;27.85;15.50;;;10.40;99.90;;;;;;5038531;28;20381;-68
2023/03/18 02:11:03;;;;;;;28.02;16.90;;;10.30;99.90;;;;;;5048969;28;20567;-68
2023/03/18 02:13:30;;;;;;;34.10;20.10;;;10.30;99.90;;;;;;5046025;28;20082;-67
2023/03/18 02:16:04;;;;;;;35.22;19.52;;;10.30;99.90;;;;;;5038067;28;20033;-67
2023/03/18 02:18:39;;;;;;;32.47;19.10;;;10.30;99.90;;;;;;5042458;28;20047;-68
2023/03/18 02:21:12;;;;;;;31.50;17.90;;;10.30;99.90;;;;;;5053251;28;20121;-67
2023/03/18 02:24:00;;;;;;;30.15;19.35;;;10.30;99.90;;;;;;5036591;28;20059;-67
2023/03/18 02:26:49;;;;;;;31.85;19.45;;;10.40;99.90;;;;;;5033784;28;20595;-68
2023/03/18 02:29:16;;;;;;;36.65;20.92;;;10.30;99.90;;;;;;5044502;28;20044;-68
2023/03/18 02:31:43;;;;;;;33.92;19.05;;;10.30;99.90;;;;;;5046458;28;20078;-67
2023/03/18 02:34:10;;;;;;;27.42;18.30;;;10.20;99.90;;;;;;5038351;28;20104;-68
2023/03/18 02:36:36;;;;;;;35.90;21.48;;;10.20;99.90;;;;;;5032158;28;20045;-67
2023/03/18 02:39:03;;;;;;;30.33;19.48;;;10.30;99.90;;;;;;5033280;28;20049;-68
2023/03/18 02:41:32;;;;;;;32.70;19.85;;;10.30;99.90;;;;;;5041791;28;20037;-67
2023/03/18 02:43:57;;;;;;;34.70;21.15;;;10.30;99.90;;;;;;5045816;28;20033;-67
2023/03/18 02:46:47;;;;;;;33.08;20.58;;;10.20;99.90;;;;;;5048411;28;20036;-68
2023/03/18 02:49:13;;;;;;;35.58;21.33;;;10.20;99.90;;;;;;5030154;28;20525;-66
2023/03/18 02:51:40;;;;;;;28.88;18.65;;;10.20;99.90;;;;;;5046927;28;20143;-67
2023/03/18 02:54:10;;;;;;;33.65;21.55;;;10.30;99.90;;;;;;5035785;28;20099;-68
2023/03/18 02:56:37;;;;;;;28.17;18.08;;;10.20;99.90;;;;;;5032248;28;20056;-67
2023/03/18 02:59:03;;;;;;;27.70;18.13;;;10.20;99.90;;;;;;5027520;28;20116;-67
2023/03/18 03:01:30;;;;;;;27.55;16.75;;;10.20;99.90;;;;;;5040273;28;20053;-68
2023/03/18 03:03:56;;;;;;;27.17;16.58;;;10.20;99.90;;;;;;5038414;28;20125;-68
2023/03/18 03:06:21;;;;;;;29.10;17.63;;;10.20;99.90;;;;;;5033627;28;20132;-68
2023/03/18 03:08:47;;;;;;;29.13;17.98;;;10.20;99.90;;;;;;5041930;28;20032;-67
2023/03/18 03:11:13;;;;;;;34.08;18.50;;;10.20;99.90;;;;;;5051749;28;20690;-67
2023/03/18 03:13:40;;;;;;;30.77;19.08;;;10.20;99.90;;;;;;5043396;28;20041;-67
2023/03/18 03:16:08;;;;;;;30.10;18.23;;;10.20;99.90;;;;;;5043338;28;20032;-68
2023/03/18 03:18:34;;;;;;;27.67;17.30;;;10.20;99.90;;;;;;5047555;28;20140;-67
2023/03/18 03:21:00;;;;;;;32.38;17.83;;;10.20;99.90;;;;;;5038843;28;20374;-67
2023/03/18 03:23:27;;;;;;;26.17;17.08;;;10.20;99.90;;;;;;5044187;28;20030;-68
2023/03/18 03:25:52;;;;;;;27.85;16.50;;;10.20;99.90;;;;;;5040334;28;20037;-67
2023/03/18 03:28:18;;;;;;;29.45;16.35;;;10.10;99.90;;;;;;5045933;28;20372;-67
2023/03/18 03:30:44;;;;;;;29.55;17.67;;;10.10;99.90;;;;;;5035431;28;20047;-67
2023/03/18 03:33:10;;;;;;;26.13;17.10;;;10.10;99.90;;;;;;5037599;28;20041;-67
2023/03/18 03:35:37;;;;;;;29.35;18.10;;;10.10;99.90;;;;;;5051133;28;20075;-67
2023/03/18 03:38:03;;;;;;;29.92;18.60;;;10.10;99.90;;;;;;5043729;28;20477;-68
2023/03/18 03:40:29;;;;;;;32.75;18.55;;;10.00;99.90;;;;;;5045207;28;22333;-67
2023/03/18 03:42:55;;;;;;;32.80;18.58;;;10.00;99.90;;;;;;5034123;28;20038;-67
2023/03/18 03:45:21;;;;;;;28.05;19.38;;;10.00;99.90;;;;;;5046246;28;20033;-67
2023/03/18 03:47:47;;;;;;;35.63;20.38;;;9.90;99.90;;;;;;5039364;28;20449;-67
2023/03/18 03:50:14;;;;;;;32.83;19.85;;;9.90;99.90;;;;;;5024354;28;20488;-67
2023/03/18 03:52:39;;;;;;;34.20;20.30;;;9.80;99.90;;;;;;5049525;28;20094;-67
2023/03/18 03:55:08;;;;;;;34.38;21.10;;;9.80;99.90;;;;;;5046539;28;20044;-67
2023/03/18 03:57:35;;;;;;;37.35;21.08;;;9.70;99.90;;;;;;5040525;28;20065;-67
2023/03/18 04:00:03;;;;;;;35.25;20.02;;;9.70;99.90;;;;;;5037153;28;20053;-67
2023/03/18 04:02:29;;;;;;;33.45;19.95;;;9.60;99.90;;;;;;5041144;28;20033;-67
2023/03/18 04:04:54;;;;;;;39.28;21.33;;;9.50;99.90;;;;;;5044796;28;20640;-67
2023/03/18 04:07:20;;;;;;;33.33;21.02;;;9.50;99.90;;;;;;5044296;28;20041;-68
2023/03/18 04:09:45;;;;;;;32.90;21.02;;;9.50;99.90;;;;;;5022402;28;20037;-67
2023/03/18 04:12:11;;;;;;;33.05;21.08;;;9.50;99.90;;;;;;5048906;28;20036;-67
2023/03/18 04:14:37;;;;;;;34.03;20.38;;;9.50;99.90;;;;;;5043484;28;20053;-67
2023/03/18 04:17:03;;;;;;;34.35;20.67;;;9.40;99.90;;;;;;5041317;28;20469;-67
2023/03/18 04:19:29;;;;;;;34.28;21.38;;;9.30;99.90;;;;;;5045079;28;20040;-67
2023/03/18 04:21:55;;;;;;;35.75;21.55;;;9.30;99.90;;;;;;5049845;28;20040;-67
2023/03/18 04:24:21;;;;;;;34.75;21.77;;;9.30;99.90;;;;;;5048182;28;20433;-67
2023/03/18 04:26:48;;;;;;;36.35;21.80;;;9.30;99.90;;;;;;5045255;28;20038;-67
2023/03/18 04:29:13;;;;;;;33.95;20.52;;;9.30;99.90;;;;;;5033522;28;20043;-67
2023/03/18 04:31:39;;;;;;;40.22;23.13;;;9.30;99.90;;;;;;5048908;28;20416;-67
2023/03/18 04:34:05;;;;;;;42.63;24.42;;;9.30;99.90;;;;;;5050096;28;20032;-67
2023/03/18 04:36:30;;;;;;;39.45;25.58;;;9.30;99.90;;;;;;5048956;28;20563;-67
2023/03/18 04:38:56;;;;;;;38.40;23.40;;;9.30;99.90;;;;;;5044777;28;20048;-67
2023/03/18 04:41:22;;;;;;;38.03;22.10;;;9.30;99.90;;;;;;5039842;28;20038;-67
2023/03/18 04:43:48;;;;;;;39.35;23.20;;;9.30;99.90;;;;;;5049378;28;20041;-68
2023/03/18 04:46:14;;;;;;;36.67;20.75;;;9.30;99.90;;;;;;5043377;28;20030;-67
2023/03/18 04:48:40;;;;;;;35.65;21.52;;;9.30;99.90;;;;;;5045528;28;20045;-68
2023/03/18 04:51:11;;;;;;;38.28;21.45;;;9.40;99.90;;;;;;5051637;28;20029;-67
2023/03/18 04:53:37;;;;;;;38.30;22.60;;;9.30;99.90;;;;;;5050622;28;20041;-67
2023/03/18 04:56:04;;;;;;;35.30;21.23;;;9.40;99.90;;;;;;5046745;28;20045;-67
2023/03/18 04:58:29;;;;;;;36.55;19.85;;;9.30;99.90;;;;;;5047146;28;20052;-67
2023/03/18 05:00:55;;;;;;;32.40;20.33;;;9.30;99.90;;;;;;5048155;28;20513;-68
2023/03/18 05:03:21;;;;;;;34.88;20.60;;;9.30;99.90;;;;;;5051630;28;20053;-67
2023/03/18 05:05:48;;;;;;;32.78;21.08;;;9.30;99.90;;;;;;5023850;28;20053;-67
2023/03/18 05:08:14;;;;;;;33.50;20.65;;;9.30;99.90;;;;;;5038750;28;20071;-66
2023/03/18 05:10:40;;;;;;;35.47;22.27;;;9.40;99.90;;;;;;5047985;28;20123;-66
2023/03/18 05:13:06;;;;;;;35.13;20.75;;;9.40;99.90;;;;;;5038775;28;20187;-67
2023/03/18 05:15:32;;;;;;;32.60;21.20;;;9.40;99.90;;;;;;5046133;28;20131;-67
2023/03/18 05:17:58;;;;;;;35.28;21.40;;;9.40;99.90;;;;;;5040180;28;20056;-67
2023/03/18 05:20:24;;;;;;;35.85;21.77;;;9.40;99.90;;;;;;5047296;28;20427;-68
2023/03/18 05:22:51;;;;;;;35.22;22.55;;;9.40;99.90;;;;;;5026889;28;20128;-67
2023/03/18 05:25:17;;;;;;;34.80;21.38;;;9.40;99.90;;;;;;5045408;28;20041;-67
2023/03/18 05:27:44;;;;;;;42.03;24.27;;;9.40;99.90;;;;;;5045308;28;20033;-66
2023/03/18 05:30:11;;;;;;;37.95;23.10;;;9.40;99.90;;;;;;5031579;28;20090;-67
2023/03/18 05:32:37;;;;;;;37.90;22.95;;;9.40;99.90;;;;;;5047560;28;20040;-67
2023/03/18 05:35:04;;;;;;;38.10;23.58;;;9.50;99.90;;;;;;5036959;28;20089;-67
2023/03/18 05:37:30;;;;;;;35.35;22.52;;;9.40;99.90;;;;;;5027112;28;20048;-67
2023/03/18 05:39:55;;;;;;;35.75;23.75;;;9.40;99.90;;;;;;5026840;28;20033;-67
2023/03/18 05:42:21;;;;;;;36.85;22.45;;;9.40;99.90;;;;;;5034164;28;20080;-67
2023/03/18 05:44:47;;;;;;;33.05;22.30;;;9.40;99.90;;;;;;5027711;28;20040;-67
2023/03/18 05:47:12;;;;;;;37.63;22.50;;;9.30;99.90;;;;;;5038212;28;20032;-67
2023/03/18 05:49:38;;;;;;;37.60;22.65;;;9.30;99.90;;;;;;5042045;28;20045;-68
2023/03/18 05:52:04;;;;;;;37.60;23.10;;;9.40;99.90;;;;;;5043998;28;20052;-67
2023/03/18 05:54:30;;;;;;;37.55;22.95;;;9.40;99.90;;;;;;5047943;28;20159;-66
2023/03/18 05:56:57;;;;;;;33.88;22.55;;;9.40;99.90;;;;;;5039701;28;20160;-68
2023/03/18 05:59:24;;;;;;;36.65;23.27;;;9.40;99.90;;;;;;5035403;28;20374;-66
2023/03/18 06:01:50;;;;;;;35.03;23.08;;;9.50;99.90;;;;;;5041284;28;20564;-66
2023/03/18 06:04:18;;;;;;;39.95;22.00;;;9.50;99.90;;;;;;5034061;28;20045;-68
2023/03/18 06:06:44;;;;;;;32.58;21.45;;;9.50;99.90;;;;;;5039360;28;20358;-67
2023/03/18 06:09:12;;;;;;;38.33;21.65;;;9.50;99.90;;;;;;5039700;28;20449;-67
2023/03/18 06:11:39;;;;;;;34.83;21.48;;;9.50;99.90;;;;;;5040231;28;20048;-68
2023/03/18 06:14:05;;;;;;;32.78;20.60;;;9.50;99.90;;;;;;5046230;28;20041;-67
2023/03/18 06:16:32;;;;;;;33.83;20.90;;;9.50;99.90;;;;;;5047072;28;20045;-67
2023/03/18 06:18:58;;;;;;;35.40;21.02;;;9.50;99.90;;;;;;5042352;28;20045;-68
2023/03/18 06:21:24;;;;;;;34.72;20.60;;;9.50;99.90;;;;;;5049641;28;20083;-67
2023/03/18 06:23:50;;;;;;;33.92;21.17;;;9.50;99.90;;;;;;5042812;28;20473;-68
2023/03/18 06:26:17;;;;;;;32.05;21.45;;;9.50;99.90;;;;;;5047232;28;20047;-67
2023/03/18 06:28:43;;;;;;;36.03;22.90;;;9.50;99.90;;;;;;5020541;28;20479;-68
2023/03/18 06:31:09;;;;;;;33.53;20.98;;;9.50;99.90;;;;;;5039348;28;20045;-67
2023/03/18 06:33:35;;;;;;;30.60;20.35;;;9.50;99.90;;;;;;5038228;28;20037;-67
2023/03/18 06:36:01;;;;;;;32.67;20.55;;;9.50;99.90;;;;;;5046943;28;20575;-67
2023/03/18 06:38:27;;;;;;;32.22;20.90;;;9.60;99.90;;;;;;5038365;28;20049;-68
2023/03/18 06:40:54;;;;;;;35.08;20.88;;;9.60;99.90;;;;;;5043158;28;20067;-68
2023/03/18 06:43:20;;;;;;;33.47;21.10;;;9.60;99.90;;;;;;5040264;28;20056;-68
2023/03/18 06:45:46;;;;;;;34.75;20.80;;;9.70;99.90;;;;;;5039937;28;20879;-67
2023/03/18 06:48:12;;;;;;;32.58;21.90;;;9.70;99.90;;;;;;5046175;28;20083;-68
2023/03/18 06:50:38;;;;;;;35.17;22.05;;;9.80;99.90;;;;;;5049570;28;20045;-68
2023/03/18 06:53:05;;;;;;;33.03;21.48;;;9.80;99.90;;;;;;5047669;28;20049;-67
2023/03/18 06:55:30;;;;;;;29.30;20.73;;;9.80;99.90;;;;;;5040144;28;20083;-68
2023/03/18 06:57:57;;;;;;;32.78;21.23;;;9.90;99.90;;;;;;5035898;28;20041;-67
2023/03/18 07:00:23;;;;;;;37.17;20.50;;;9.80;99.90;;;;;;5031628;28;20056;-68
2023/03/18 07:02:50;;;;;;;32.05;19.55;;;9.80;99.90;;;;;;5039928;28;20369;-67
2023/03/18 07:05:16;;;;;;;31.48;20.52;;;9.80;99.90;;;;;;5031490;28;20041;-67
2023/03/18 07:07:43;;;;;;;28.67;19.33;;;9.70;99.90;;;;;;5035665;28;20041;-68
2023/03/18 07:10:16;;;;;;;30.50;20.05;;;9.80;99.90;;;;;;5028389;28;20045;-67
2023/03/18 07:12:41;;;;;;;30.05;18.80;;;9.80;99.90;;;;;;5037591;28;20076;-67
2023/03/18 07:15:07;;;;;;;33.95;19.55;;;10.00;99.90;;;;;;5044730;28;20759;-67
2023/03/18 07:17:33;;;;;;;31.77;19.50;;;10.10;99.90;;;;;;5028239;28;20987;-67
2023/03/18 07:19:58;;;;;;;30.40;19.63;;;10.20;99.90;;;;;;5029547;28;20049;-68
2023/03/18 07:22:24;;;;;;;29.23;18.58;;;10.30;99.90;;;;;;5036222;28;20366;-68
2023/03/18 07:24:51;;;;;;;31.85;19.67;;;10.40;99.90;;;;;;5040895;28;20056;-68
2023/03/18 07:27:17;;;;;;;29.13;18.50;;;10.50;99.90;;;;;;5019261;28;20353;-68
2023/03/18 07:29:42;;;;;;;28.85;18.75;;;10.60;99.90;;;;;;5033217;28;20049;-67
2023/03/18 07:32:08;;;;;;;29.00;19.48;;;10.70;99.90;;;;;;5045527;28;20444;-68
2023/03/18 07:34:34;;;;;;;27.23;17.95;;;10.70;99.90;;;;;;5012470;28;20033;-67
2023/03/18 07:37:01;;;;;;;28.65;18.30;;;10.80;99.90;;;;;;5015106;28;20037;-68
2023/03/18 07:39:26;;;;;;;29.75;18.85;;;10.80;99.90;;;;;;5043537;28;20049;-68
2023/03/18 07:41:52;;;;;;;32.10;18.52;;;10.80;99.90;;;;;;5034508;28;20052;-66
2023/03/18 07:44:18;;;;;;;26.65;17.23;;;10.80;99.90;;;;;;5036257;28;20033;-67
2023/03/18 07:46:44;;;;;;;31.67;17.52;;;10.80;99.90;;;;;;5039778;28;20056;-68
2023/03/18 07:49:10;;;;;;;25.35;16.48;;;10.90;99.90;;;;;;5040975;28;20567;-68
2023/03/18 07:51:35;;;;;;;27.73;16.90;;;10.80;99.90;;;;;;5039850;28;20037;-67
2023/03/18 07:54:02;;;;;;;31.77;17.20;;;10.80;99.90;;;;;;5039725;28;20154;-67
2023/03/18 07:56:28;;;;;;;28.33;17.40;;;10.90;99.90;;;;;;5044335;28;20091;-67
2023/03/18 07:58:53;;;;;;;23.92;16.75;;;10.90;99.90;;;;;;5036497;28;20454;-68
2023/03/18 08:01:19;;;;;;;26.00;17.52;;;10.90;99.90;;;;;;5041619;28;20057;-68
2023/03/18 08:03:45;;;;;;;29.13;16.55;;;10.90;99.90;;;;;;5033977;28;20041;-67
2023/03/18 08:06:12;;;;;;;30.10;18.10;;;10.90;99.90;;;;;;5034755;28;20033;-68
2023/03/18 08:08:39;;;;;;;27.88;17.15;;;10.80;99.90;;;;;;5041500;28;20037;-68
2023/03/18 08:11:05;;;;;;;31.15;17.98;;;10.80;99.90;;;;;;5041916;28;20037;-67
2023/03/18 08:13:30;;;;;;;30.88;17.83;;;10.70;99.90;;;;;;5039615;28;20049;-68
2023/03/18 08:15:56;;;;;;;26.92;18.08;;;10.70;99.90;;;;;;5052451;28;20120;-67
2023/03/18 08:18:22;;;;;;;29.60;18.75;;;10.70;99.90;;;;;;5037773;28;20350;-68
2023/03/18 08:20:48;;;;;;;29.55;18.50;;;10.70;99.90;;;;;;5039382;28;20037;-67
2023/03/18 08:23:14;;;;;;;30.20;18.48;;;10.70;99.90;;;;;;5046389;28;20033;-67
2023/03/18 08:25:41;;;;;;;34.88;20.48;;;10.70;99.90;;;;;;5031031;28;20063;-68
2023/03/18 08:28:07;;;;;;;30.65;18.77;;;10.70;99.90;;;;;;5033172;28;20056;-68
2023/03/18 08:30:34;;;;;;;34.22;20.50;;;10.60;99.90;;;;;;5031402;28;20115;-67
2023/03/18 08:33:00;;;;;;;34.17;21.17;;;10.60;99.90;;;;;;5045889;28;20036;-68
2023/03/18 08:35:26;;;;;;;30.88;19.00;;;10.60;99.90;;;;;;5043815;28;20040;-67
2023/03/18 08:37:52;;;;;;;33.50;20.92;;;10.60;99.90;;;;;;5043462;28;20101;-68
2023/03/18 08:40:19;;;;;;;31.15;19.98;;;10.70;99.90;;;;;;5039407;28;20049;-68
2023/03/18 08:42:45;;;;;;;31.98;19.90;;;10.80;99.90;;;;;;5038274;28;20067;-67
2023/03/18 08:45:12;;;;;;;33.58;20.30;;;10.80;99.90;;;;;;5029901;28;20052;-67
2023/03/18 08:47:38;;;;;;;31.52;20.60;;;10.80;99.90;;;;;;5036811;28;20038;-68
2023/03/18 08:50:04;;;;;;;31.08;19.33;;;10.80;99.90;;;;;;5040756;28;20045;-68
2023/03/18 08:52:31;;;;;;;33.13;19.15;;;10.80;99.90;;;;;;5038718;28;20032;-68
2023/03/18 08:54:57;;;;;;;29.42;19.00;;;10.90;99.90;;;;;;5042669;28;20033;-68
2023/03/18 08:57:23;;;;;;;31.30;20.23;;;11.00;99.90;;;;;;5028384;28;20045;-67
2023/03/18 08:59:49;;;;;;;32.58;19.30;;;11.10;99.90;;;;;;5038788;28;20083;-67
2023/03/18 09:02:17;;;;;;;27.92;19.73;;;11.20;99.90;;;;;;5019186;28;20041;-69
2023/03/18 09:04:43;;;;;;;35.40;21.33;;;11.20;99.90;;;;;;5055346;28;20486;-69
2023/03/18 09:07:09;;;;;;;35.45;21.38;;;11.30;99.90;;;;;;5045297;28;20527;-68
2023/03/18 09:09:36;;;;;;;34.10;21.17;;;11.40;99.90;;;;;;5032797;28;20110;-68
2023/03/18 09:12:04;;;;;;;36.53;23.15;;;11.60;99.90;;;;;;5032390;28;20076;-68
2023/03/18 09:14:30;;;;;;;30.60;21.55;;;11.70;99.90;;;;;;5028979;28;20045;-68
2023/03/18 09:16:55;;;;;;;32.38;22.48;;;11.90;99.90;;;;;;5030877;28;20052;-67
2023/03/18 09:19:21;;;;;;;33.78;22.23;;;12.00;99.90;;;;;;5031075;28;20369;-67
2023/03/18 09:21:46;;;;;;;35.30;22.13;;;12.20;99.90;;;;;;5046659;28;20048;-68
2023/03/18 09:24:12;;;;;;;35.67;23.60;;;12.40;99.90;;;;;;5049850;28;20056;-68
2023/03/18 09:26:38;;;;;;;36.85;24.02;;;12.50;99.90;;;;;;5051386;28;20044;-68
2023/03/18 09:29:04;;;;;;;40.53;26.10;;;12.60;99.90;;;;;;5048505;28;20117;-67
2023/03/18 09:31:29;;;;;;;37.42;24.60;;;12.80;99.90;;;;;;5045797;28;20127;-69
2023/03/18 09:33:55;;;;;;;38.15;25.23;;;12.90;99.90;;;;;;5050708;28;20078;-68
2023/03/18 09:36:21;;;;;;;35.97;23.90;;;12.90;99.90;;;;;;5030875;28;20041;-68
2023/03/18 09:38:47;;;;;;;35.08;23.83;;;13.00;99.90;;;;;;5030314;28;20071;-68
2023/03/18 09:41:34;;;;;;;39.97;23.85;;;13.00;99.90;;;;;;5014016;28;20049;-69
2023/03/18 09:44:22;;;;;;;36.88;23.70;;;13.30;99.90;;;;;;5028259;28;20505;-68
2023/03/18 09:46:51;;;;;;;38.42;24.42;;;13.50;99.90;;;;;;5031875;28;20037;-68
2023/03/18 09:49:41;;;;;;;36.20;23.92;;;13.70;99.90;;;;;;5047359;28;20053;-68
2023/03/18 09:52:22;;;;;;;34.60;23.13;;;13.90;99.90;;;;;;5032595;28;20041;-67
2023/03/18 09:54:53;;;;;;;;;;;14.00;99.90;;;;;;5050359;28;20048;-69
2023/03/18 09:57:25;;;;;;;34.88;22.80;;;13.90;99.90;;;;;;5048926;28;20019;-68
2023/03/18 09:59:57;;;;;;;37.60;22.55;;;14.00;99.90;;;;;;5046578;28;20076;-69
2023/03/18 10:02:31;;;;;;;34.65;21.35;;;14.00;99.90;;;;;;5049202;28;20076;-67
2023/03/18 10:05:06;;;;;;;31.52;20.63;;;14.00;99.90;;;;;;5048815;28;20064;-68
2023/03/18 10:07:38;;;;;;;34.28;21.52;;;14.10;99.90;;;;;;5034117;28;20056;-68
2023/03/18 10:10:26;;;;;;;31.98;21.58;;;14.30;99.90;;;;;;5032447;28;20041;-68
2023/03/18 10:13:09;;;;;;;33.15;20.42;;;14.40;99.90;;;;;;5043550;28;20095;-69
2023/03/18 10:15:41;;;;;;;35.08;21.38;;;14.60;99.90;;;;;;5048192;28;20526;-68
2023/03/18 10:18:38;;;;;;;31.38;19.83;;;14.60;99.90;;;;;;5047648;28;20041;-70
2023/03/18 10:21:37;;;;;;;34.88;20.73;;;14.50;99.90;;;;;;5046648;28;20068;-68
2023/03/18 10:24:28;;;;;;;33.85;21.08;;;14.40;99.90;;;;;;5049116;28;20070;-68
2023/03/18 10:27:09;;;;;;;31.88;20.73;;;14.30;99.90;;;;;;5049296;28;20489;-68
2023/03/18 10:29:58;;;;;;;29.63;21.30;;;14.20;99.90;;;;;;5046901;28;20072;-68
2023/03/18 10:32:47;;;;;;;31.05;20.65;;;14.30;99.90;;;;;;5032140;28;20046;-67
2023/03/18 10:35:31;;;;;;;31.40;19.80;;;14.20;99.90;;;;;;5030946;28;20037;-68
2023/03/18 10:38:03;;;;;;;29.08;19.10;;;14.20;99.90;;;;;;5028399;28;20178;-68
2023/03/18 10:40:34;;;;;;;30.52;19.77;;;14.10;99.90;;;;;;5032026;28;20045;-68
2023/03/18 10:43:01;;;;;;;31.25;19.85;;;14.10;99.90;;;;;;5028255;28;20052;-68
2023/03/18 10:45:30;;;;;;;27.08;18.83;;;14.00;99.90;;;;;;5037472;28;20093;-70
2023/03/18 10:48:32;;;;;;;30.98;19.25;;;14.10;99.90;;;;;;5048777;28;20120;-69
2023/03/18 10:51:17;;;;;;;28.80;17.42;;;14.10;99.90;;;;;;5046949;28;20086;-68
2023/03/18 10:54:04;;;;;;;26.50;18.17;;;14.30;99.90;;;;;;5034883;28;20037;-68
2023/03/18 10:56:30;;;;;;;32.13;20.05;;;14.30;99.90;;;;;;5047001;28;20474;-68
2023/03/18 10:58:56;;;;;;;27.85;18.33;;;14.20;99.90;;;;;;5046595;28;20040;-67
2023/03/18 11:01:27;;;;;;;31.50;18.77;;;14.30;99.90;;;;;;5040724;28;20054;-67
2023/03/18 11:04:00;;;;;;;29.48;18.70;;;14.20;99.90;;;;;;5029641;28;20456;-68
2023/03/18 11:06:43;;;;;;;24.98;16.63;;;14.50;99.90;;;;;;5048105;28;20139;-69
2023/03/18 11:09:17;;;;;;;27.33;16.83;;;14.60;99.90;;;;;;5049735;28;20044;-68
2023/03/18 11:11:44;;;;;;;25.65;16.00;;;14.50;99.90;;;;;;5047467;28;20049;-67
2023/03/18 11:14:21;;;;;;;21.98;14.63;;;14.40;99.90;;;;;;5031775;28;20075;-68
2023/03/18 11:16:55;;;;;;;22.92;13.93;;;14.50;99.90;;;;;;5048021;28;20065;-68
2023/03/18 11:19:38;;;;;;;21.02;14.40;;;14.50;99.90;;;;;;5032699;28;20055;-68
2023/03/18 11:22:19;;;;;;;24.17;14.43;;;14.30;99.90;;;;;;5048688;28;20083;-68
2023/03/18 11:24:45;;;;;;;24.52;14.32;;;14.30;99.90;;;;;;5048767;28;20135;-69
2023/03/18 11:27:14;;;;;;;22.27;14.02;;;14.30;99.90;;;;;;5048859;28;20119;-69
2023/03/18 11:29:55;;;;;;;22.35;14.20;;;14.20;99.90;;;;;;5016910;28;20100;-70
2023/03/18 11:32:30;;;;;;;24.45;15.57;;;14.20;99.90;;;;;;5032757;28;20467;-69
2023/03/18 11:35:01;;;;;;;21.02;13.63;;;14.20;99.90;;;;;;5035777;28;20382;-68
2023/03/18 11:37:39;;;;;;;22.00;15.00;;;14.20;99.90;;;;;;5040410;28;20381;-69
2023/03/18 11:40:18;;;;;;;21.70;14.73;;;14.40;99.90;;;;;;5051899;28;20185;-69
2023/03/18 11:42:47;;;;;;;20.17;15.25;;;14.50;99.90;;;;;;5054230;28;20044;-68
2023/03/18 11:45:25;;;;;;;20.73;15.05;;;14.50;99.90;;;;;;5048388;28;20028;-68
2023/03/18 11:47:51;;;;;;;23.08;14.85;;;14.40;99.90;;;;;;5053146;28;20037;-68
2023/03/18 11:50:25;;;;;;;18.67;13.57;;;14.30;99.90;;;;;;5053716;28;20044;-68
2023/03/18 11:53:05;;;;;;;18.33;13.43;;;14.30;99.90;;;;;;5053904;28;20041;-70
2023/03/18 11:55:59;;;;;;;18.70;13.63;;;14.40;99.90;;;;;;5051618;28;20045;-68
2023/03/18 11:58:37;;;;;;;18.10;13.65;;;14.40;99.90;;;;;;5043159;28;20037;-67
2023/03/18 12:01:18;;;;;;;21.60;13.65;;;14.60;99.90;;;;;;5034023;28;20110;-68
2023/03/18 12:03:59;;;;;;;14.88;11.35;;;14.80;99.90;;;;;;5051821;28;20048;-68
2023/03/18 12:06:27;;;;;;;15.52;11.13;;;14.60;99.90;;;;;;5052780;28;20037;-67
2023/03/18 12:09:11;;;;;;;13.45;10.77;;;14.80;99.90;;;;;;5051735;28;20420;-68
2023/03/18 12:12:05;;;;;;;15.45;10.88;;;14.90;99.90;;;;;;5053629;28;20037;-68
2023/03/18 12:14:55;;;;;;;10.93;8.55;;;14.90;97.50;;;;;;5049303;28;20126;-67
2023/03/18 12:17:28;;;;;;;11.37;8.90;;;15.00;99.80;;;;;;5050449;28;20489;-67
2023/03/18 12:20:03;;;;;;;12.98;8.68;;;15.10;99.90;;;;;;5036268;28;20413;-67
2023/03/18 12:22:40;;;;;;;11.10;8.88;;;15.20;99.60;;;;;;5032705;28;20128;-67
2023/03/18 12:25:33;;;;;;;11.63;8.52;;;15.30;99.90;;;;;;5032728;28;20037;-69
2023/03/18 12:28:16;;;;;;;10.65;7.75;;;15.40;97.70;;;;;;5050773;28;20041;-69
2023/03/18 12:30:57;;;;;;;9.85;7.25;;;15.60;98.00;;;;;;5050840;28;20041;-68
2023/03/18 12:33:27;;;;;;;9.90;7.10;;;15.80;93.10;;;;;;5051422;28;20037;-68
2023/03/18 12:36:21;;;;;;;9.13;5.97;;;15.80;95.80;;;;;;5052877;28;20075;-69
2023/03/18 12:39:12;;;;;;;10.55;6.50;;;15.80;93.70;;;;;;5051738;28;20621;-71
2023/03/18 12:42:01;;;;;;;8.32;6.30;;;15.80;92.10;;;;;;5050035;28;20106;-70
2023/03/18 12:44:57;;;;;;;9.48;6.78;;;16.00;93.00;;;;;;5050168;28;20045;-69